createdAt,value
2022-10-23T00:01:30.677Z,7.45
2022-10-23T00:06:23.435Z,7.20
2022-10-23T00:08:49.820Z,7.07
2022-10-23T00:11:17.563Z,6.88
2022-10-23T00:13:43.924Z,8.13
2022-10-23T00:16:10.328Z,6.95
2022-10-23T00:18:37.478Z,8.07
2022-10-23T00:21:04.110Z,7.50
2022-10-23T00:23:30.385Z,7.22
2022-10-23T00:25:56.596Z,8.10
2022-10-23T00:28:22.891Z,8.40
2022-10-23T00:30:49.156Z,7.90
2022-10-23T00:33:15.428Z,8.10
2022-10-23T00:35:42.024Z,8.60
2022-10-23T00:38:08.881Z,9.27
2022-10-23T00:40:35.468Z,9.52
2022-10-23T00:43:02.006Z,8.82
2022-10-23T00:45:31.646Z,10.00
2022-10-23T00:47:57.946Z,9.70
2022-10-23T00:50:25.341Z,9.75
2022-10-23T00:52:52.775Z,9.50
2022-10-23T00:55:20.378Z,9.18
2022-10-23T00:57:48.119Z,9.82
2022-10-23T01:00:16.461Z,9.75
2022-10-23T01:02:43.169Z,9.73
2022-10-23T01:05:09.857Z,9.05
2022-10-23T01:07:49.254Z,9.65
2022-10-23T01:10:19.899Z,9.32
2022-10-23T01:12:48.915Z,8.77
2022-10-23T01:15:22.117Z,9.43
2022-10-23T01:17:48.471Z,9.07
2022-10-23T01:20:23.814Z,9.77
2022-10-23T01:22:56.088Z,9.25
2022-10-23T01:25:48.614Z,9.60
2022-10-23T01:28:17.811Z,9.50
2022-10-23T01:30:44.510Z,9.30
2022-10-23T01:33:14.863Z,9.82
2022-10-23T01:35:45.672Z,9.48
2022-10-23T01:38:14.007Z,10.52
2022-10-23T01:41:02.048Z,9.30
2022-10-23T01:43:40.554Z,9.68
2022-10-23T01:46:08.939Z,9.55
2022-10-23T01:48:35.979Z,9.45
2022-10-23T01:51:05.706Z,9.82
2022-10-23T01:53:34.267Z,9.05
2022-10-23T01:56:02.339Z,9.82
2022-10-23T01:58:29.758Z,9.35
2022-10-23T02:00:58.280Z,9.15
2022-10-23T02:03:26.240Z,9.65
2022-10-23T02:05:52.542Z,9.40
2022-10-23T02:08:18.765Z,9.55
2022-10-23T02:10:49.788Z,9.25
2022-10-23T02:13:15.979Z,9.23
2022-10-23T02:15:44.923Z,9.40
2022-10-23T02:18:11.125Z,9.68
2022-10-23T02:20:41.017Z,8.98
2022-10-23T02:23:15.117Z,9.10
2022-10-23T02:25:53.299Z,9.10
2022-10-23T02:28:22.443Z,9.15
2022-10-23T02:30:50.059Z,8.65
2022-10-23T02:33:17.000Z,9.18
2022-10-23T02:35:43.339Z,8.82
2022-10-23T02:38:28.519Z,8.43
2022-10-23T02:40:57.152Z,7.95
2022-10-23T02:43:36.644Z,7.97
2022-10-23T02:46:06.013Z,8.40
2022-10-23T02:48:41.583Z,8.60
2022-10-23T02:51:14.933Z,9.25
2022-10-23T02:53:45.506Z,8.43
2022-10-23T02:56:21.437Z,8.52
2022-10-23T02:58:56.820Z,8.55
2022-10-23T03:01:27.762Z,8.68
2022-10-23T03:03:56.547Z,8.38
2022-10-23T03:06:23.637Z,8.40
2022-10-23T03:08:54.158Z,8.60
2022-10-23T03:11:20.397Z,8.30
2022-10-23T03:13:46.690Z,8.18
2022-10-23T03:16:12.905Z,9.02
2022-10-23T03:18:39.111Z,8.52
2022-10-23T03:21:05.343Z,7.70
2022-10-23T03:23:31.569Z,9.35
2022-10-23T03:25:57.862Z,8.65
2022-10-23T03:28:24.108Z,8.75
2022-10-23T03:30:50.373Z,7.78
2022-10-23T03:33:16.597Z,8.10
2022-10-23T03:35:42.868Z,7.82
2022-10-23T03:38:09.199Z,8.35
2022-10-23T03:40:35.444Z,8.10
2022-10-23T03:43:01.652Z,7.93
2022-10-23T03:45:27.881Z,7.55
2022-10-23T03:47:54.164Z,8.75
2022-10-23T03:50:20.455Z,8.00
2022-10-23T03:52:46.752Z,8.13
2022-10-23T03:55:13.055Z,8.25
2022-10-23T03:57:39.366Z,8.00
2022-10-23T04:00:06.542Z,7.88
2022-10-23T04:02:32.796Z,8.10
2022-10-23T04:04:59.043Z,7.65
2022-10-23T04:07:25.300Z,7.78
2022-10-23T04:09:51.510Z,7.70
2022-10-23T04:12:17.721Z,7.40
2022-10-23T04:14:43.952Z,7.70
2022-10-23T04:17:10.201Z,7.63
2022-10-23T04:19:36.464Z,6.88
2022-10-23T04:22:02.679Z,6.72
2022-10-23T04:24:28.922Z,7.50
2022-10-23T04:26:55.164Z,7.97
2022-10-23T04:29:23.743Z,6.82
2022-10-23T04:31:51.279Z,7.10
2022-10-23T04:34:18.271Z,6.85
2022-10-23T04:36:44.518Z,7.15
2022-10-23T04:39:10.828Z,6.78
2022-10-23T04:41:38.834Z,6.80
2022-10-23T04:44:05.067Z,6.85
2022-10-23T04:46:31.397Z,7.65
2022-10-23T04:48:57.650Z,6.85
2022-10-23T04:51:23.914Z,7.00
2022-10-23T04:53:50.247Z,7.30
2022-10-23T04:56:16.554Z,7.00
2022-10-23T04:58:42.811Z,7.28
2022-10-23T05:01:10.535Z,6.65
2022-10-23T05:03:37.774Z,7.00
2022-10-23T05:06:04.564Z,6.75
2022-10-23T05:08:30.781Z,6.47
2022-10-23T05:10:57.010Z,7.05
2022-10-23T05:13:23.771Z,6.95
2022-10-23T05:15:50.775Z,7.18
2022-10-23T05:18:31.151Z,6.68
2022-10-23T05:21:01.796Z,6.82
2022-10-23T05:23:29.713Z,6.97
2022-10-23T05:25:55.933Z,6.55
2022-10-23T05:28:22.296Z,7.22
2022-10-23T05:30:48.930Z,7.10
2022-10-23T05:33:15.210Z,7.00
2022-10-23T05:35:42.491Z,6.82
2022-10-23T05:38:08.914Z,6.95
2022-10-23T05:40:35.154Z,6.43
2022-10-23T05:43:01.484Z,6.93
2022-10-23T05:45:27.769Z,6.82
2022-10-23T05:47:56.528Z,7.40
2022-10-23T05:50:25.023Z,6.75
2022-10-23T05:52:51.306Z,6.88
2022-10-23T05:55:17.596Z,6.95
2022-10-23T05:57:44.103Z,7.13
2022-10-23T06:00:10.931Z,7.38
2022-10-23T06:02:37.199Z,6.85
2022-10-23T06:05:03.667Z,6.97
2022-10-23T06:07:32.440Z,7.30
2022-10-23T06:10:01.429Z,6.38
2022-10-23T06:12:27.697Z,6.80
2022-10-23T06:14:53.923Z,6.88
2022-10-23T06:17:20.147Z,7.45
2022-10-23T06:19:46.419Z,7.20
2022-10-23T06:22:12.761Z,6.80
2022-10-23T06:24:39.192Z,6.65
2022-10-23T06:27:05.410Z,7.55
2022-10-23T06:29:31.712Z,7.47
2022-10-23T06:31:57.930Z,7.05
2022-10-23T06:34:24.188Z,6.90
2022-10-23T06:36:50.415Z,6.90
2022-10-23T06:39:16.651Z,7.00
2022-10-23T06:41:44.296Z,6.72
2022-10-23T06:44:11.295Z,6.32
2022-10-23T06:46:37.539Z,6.75
2022-10-23T06:49:03.936Z,6.57
2022-10-23T06:51:30.170Z,7.03
2022-10-23T06:53:56.836Z,7.00
2022-10-23T06:56:25.123Z,6.20
2022-10-23T06:58:51.491Z,6.97
2022-10-23T07:01:17.880Z,6.53
2022-10-23T07:03:44.884Z,6.35
2022-10-23T07:06:11.384Z,6.32
2022-10-23T07:08:37.850Z,6.85
2022-10-23T07:11:05.045Z,6.95
2022-10-23T07:13:31.432Z,7.20
2022-10-23T07:15:57.721Z,7.57
2022-10-23T07:18:24.001Z,6.78
2022-10-23T07:20:56.970Z,7.03
2022-10-23T07:23:23.189Z,6.75
2022-10-23T07:25:49.423Z,6.88
2022-10-23T07:28:15.645Z,7.20
2022-10-23T07:30:42.875Z,7.03
2022-10-23T07:33:11.204Z,7.03
2022-10-23T07:35:39.334Z,7.38
2022-10-23T07:38:05.679Z,6.68
2022-10-23T07:40:31.885Z,6.53
2022-10-23T07:42:58.147Z,6.43
2022-10-23T07:45:24.354Z,6.40
2022-10-23T07:47:51.559Z,6.78
2022-10-23T07:50:17.944Z,6.70
2022-10-23T07:52:44.396Z,7.05
2022-10-23T07:55:10.788Z,6.88
2022-10-23T07:57:38.200Z,6.53
2022-10-23T08:00:06.069Z,6.30
2022-10-23T08:02:32.358Z,6.03
2022-10-23T08:04:58.607Z,5.78
2022-10-23T08:07:24.826Z,6.13
2022-10-23T08:09:51.111Z,6.20
2022-10-23T08:12:17.319Z,6.32
2022-10-23T08:14:43.543Z,6.20
2022-10-23T08:17:10.151Z,6.53
2022-10-23T08:19:36.663Z,5.80
2022-10-23T08:22:03.775Z,6.28
2022-10-23T08:24:30.091Z,5.93
2022-10-23T08:26:56.505Z,5.65
2022-10-23T08:29:22.714Z,6.30
2022-10-23T08:31:49.290Z,5.90
2022-10-23T08:34:16.248Z,5.95
2022-10-23T08:36:42.535Z,6.10
2022-10-23T08:39:09.397Z,6.07
2022-10-23T08:41:36.980Z,5.45
2022-10-23T08:44:06.290Z,5.43
2022-10-23T08:46:35.831Z,5.85
2022-10-23T08:49:25.267Z,5.68
2022-10-23T08:51:53.522Z,5.82
2022-10-23T08:54:28.458Z,5.95
2022-10-23T08:57:00.223Z,5.50
2022-10-23T08:59:28.083Z,5.63
2022-10-23T09:01:59.825Z,5.13
2022-10-23T09:04:26.134Z,5.45
2022-10-23T09:06:59.872Z,5.15
2022-10-23T09:09:44.833Z,5.60
2022-10-23T09:12:21.603Z,5.38
2022-10-23T09:15:06.433Z,4.90
2022-10-23T09:17:34.406Z,5.55
2022-10-23T09:20:16.328Z,5.43
2022-10-23T09:22:45.783Z,5.63
2022-10-23T09:25:17.359Z,4.75
2022-10-23T09:27:53.222Z,4.93
2022-10-23T09:30:35.827Z,5.03
2022-10-23T09:33:14.144Z,4.57
2022-10-23T09:35:51.193Z,4.75
2022-10-23T09:38:37.115Z,4.68
2022-10-23T09:41:07.172Z,4.80
2022-10-23T09:43:33.699Z,4.53
2022-10-23T09:46:05.042Z,4.43
2022-10-23T09:48:31.498Z,4.65
2022-10-23T09:50:59.064Z,4.25
2022-10-23T09:53:34.130Z,4.40
2022-10-23T09:56:04.876Z,4.35
2022-10-23T10:00:57.451Z,3.63
2022-10-23T10:03:24.297Z,3.90
2022-10-23T10:05:58.499Z,3.58
2022-10-23T10:08:36.764Z,4.00
2022-10-23T10:11:16.938Z,3.30
2022-10-23T10:13:45.972Z,4.13
2022-10-23T10:16:19.828Z,3.85
2022-10-23T10:18:58.265Z,4.00
2022-10-23T10:21:27.616Z,3.75
2022-10-23T10:24:00.461Z,3.58
2022-10-23T10:26:45.800Z,3.70
2022-10-23T10:29:12.046Z,3.55
2022-10-23T10:31:50.753Z,3.63
2022-10-23T10:34:19.242Z,3.80
2022-10-23T10:36:54.500Z,3.80
2022-10-23T10:39:20.753Z,3.25
2022-10-23T10:42:08.567Z,3.42
2022-10-23T10:44:34.782Z,3.38
2022-10-23T10:47:07.074Z,3.50
2022-10-23T10:49:33.251Z,3.30
2022-10-23T10:52:06.955Z,3.85
2022-10-23T10:54:39.895Z,3.83
2022-10-23T10:57:11.151Z,3.53
2022-10-23T10:59:38.684Z,3.90
2022-10-23T11:02:13.791Z,3.60
2022-10-23T11:04:44.396Z,3.33
2022-10-23T11:07:13.094Z,4.00
2022-10-23T11:09:39.993Z,3.60
2022-10-23T11:12:06.272Z,3.70
2022-10-23T11:14:33.640Z,3.70
2022-10-23T11:17:07.605Z,3.38
2022-10-23T11:19:42.882Z,3.53
2022-10-23T11:22:09.080Z,3.40
2022-10-23T11:24:49.067Z,3.63
2022-10-23T11:27:26.273Z,3.22
2022-10-23T11:29:52.537Z,3.47
2022-10-23T11:32:18.750Z,2.80
2022-10-23T11:35:03.643Z,3.13
2022-10-23T11:37:30.212Z,2.72
2022-10-23T11:40:14.509Z,2.53
2022-10-23T11:42:41.129Z,2.90
2022-10-23T11:45:26.956Z,2.55
2022-10-23T11:48:00.771Z,2.50
2022-10-23T11:50:31.466Z,2.53
2022-10-23T11:55:39.560Z,2.58
2022-10-23T11:58:08.570Z,2.35
2022-10-23T12:00:38.679Z,2.67
2022-10-23T12:03:05.573Z,2.20
2022-10-23T12:05:37.742Z,2.63
2022-10-23T12:08:05.783Z,3.05
2022-10-23T12:10:37.164Z,2.60
2022-10-23T12:13:05.804Z,2.45
2022-10-23T12:15:32.775Z,2.58
2022-10-23T12:18:13.065Z,2.83
2022-10-23T12:20:44.754Z,2.55
2022-10-23T12:23:15.948Z,2.90
2022-10-23T12:25:58.899Z,2.35
2022-10-23T12:28:31.632Z,2.83
2022-10-23T12:31:08.012Z,2.92
2022-10-23T12:33:47.844Z,2.80
2022-10-23T12:36:29.127Z,2.67
2022-10-23T12:38:58.422Z,3.03
2022-10-23T12:41:25.872Z,2.90
2022-10-23T12:43:59.281Z,2.70
2022-10-23T12:46:36.328Z,2.38
2022-10-23T12:49:04.139Z,2.50
2022-10-23T12:51:34.062Z,2.97
2022-10-23T12:54:00.552Z,2.63
2022-10-23T12:56:29.423Z,2.60
2022-10-23T12:59:01.271Z,2.60
2022-10-23T13:01:29.224Z,2.60
2022-10-23T13:03:57.207Z,2.63
2022-10-23T13:06:23.494Z,2.70
2022-10-23T13:08:50.159Z,3.55
2022-10-23T13:11:18.697Z,2.60
2022-10-23T13:13:44.976Z,2.78
2022-10-23T13:16:15.226Z,2.33
2022-10-23T13:18:41.764Z,2.40
2022-10-23T13:21:14.119Z,2.40
2022-10-23T13:23:41.753Z,2.53
2022-10-23T13:26:26.620Z,2.00
2022-10-23T13:28:52.923Z,2.05
2022-10-23T13:31:34.706Z,1.98
2022-10-23T13:34:00.902Z,2.00
2022-10-23T13:36:36.526Z,1.80
2022-10-23T13:39:08.927Z,2.70
2022-10-23T13:41:36.691Z,2.10
2022-10-23T13:44:02.914Z,1.95
2022-10-23T13:46:29.415Z,2.00
2022-10-23T13:48:55.663Z,2.35
2022-10-23T13:51:22.860Z,2.45
2022-10-23T13:53:49.713Z,2.38
2022-10-23T13:56:16.619Z,2.60
2022-10-23T13:58:43.129Z,2.25
2022-10-23T14:01:18.374Z,2.50
2022-10-23T14:03:44.689Z,2.50
2022-10-23T14:06:10.891Z,2.30
2022-10-23T14:08:37.116Z,2.30
2022-10-23T14:11:03.411Z,2.50
2022-10-23T14:13:29.702Z,2.90
2022-10-23T14:15:55.991Z,2.45
2022-10-23T14:18:22.328Z,2.00
2022-10-23T14:20:48.719Z,2.30
2022-10-23T14:23:14.979Z,2.20
2022-10-23T14:25:41.219Z,2.20
2022-10-23T14:28:07.465Z,2.60
2022-10-23T14:30:35.588Z,2.55
2022-10-23T14:33:01.818Z,2.63
2022-10-23T14:35:28.087Z,2.08
2022-10-23T14:37:54.352Z,2.33
2022-10-23T14:40:20.583Z,2.40
2022-10-23T14:42:46.998Z,2.20
2022-10-23T14:45:13.511Z,2.03
2022-10-23T14:47:39.719Z,2.70
2022-10-23T14:50:06.295Z,2.60
2022-10-23T14:52:32.501Z,2.47
2022-10-23T14:54:58.782Z,2.53
2022-10-23T14:57:25.095Z,2.38
2022-10-23T14:59:51.423Z,2.40
2022-10-23T15:02:17.804Z,2.17
2022-10-23T15:04:44.187Z,2.95
2022-10-23T15:07:10.626Z,2.70
2022-10-23T15:09:37.352Z,2.60
2022-10-23T15:12:04.123Z,3.00
2022-10-23T15:14:30.444Z,2.90
2022-10-23T15:16:56.684Z,2.58
2022-10-23T15:19:22.985Z,2.72
2022-10-23T15:21:49.362Z,3.13
2022-10-23T15:24:16.493Z,2.83
2022-10-23T15:26:43.318Z,2.63
2022-10-23T15:29:11.176Z,2.47
2022-10-23T15:31:37.499Z,3.05
2022-10-23T15:34:04.666Z,2.58
2022-10-23T15:36:31.279Z,2.70
2022-10-23T15:38:57.585Z,3.00
2022-10-23T15:41:27.424Z,2.67
2022-10-23T15:43:53.792Z,2.70
2022-10-23T15:46:20.017Z,3.40
2022-10-23T15:48:46.331Z,3.28
2022-10-23T15:51:12.539Z,3.08
2022-10-23T15:53:38.755Z,2.70
2022-10-23T15:56:05.236Z,2.53
2022-10-23T15:58:31.475Z,2.78
2022-10-23T16:00:59.029Z,2.60
2022-10-23T16:03:25.298Z,3.00
2022-10-23T16:05:51.521Z,2.78
2022-10-23T16:08:17.806Z,2.78
2022-10-23T16:10:44.093Z,3.28
2022-10-23T16:13:10.330Z,2.67
2022-10-23T16:15:37.449Z,2.63
2022-10-23T16:18:04.069Z,2.78
2022-10-23T16:20:30.509Z,2.97
2022-10-23T16:22:56.733Z,3.13
2022-10-23T16:25:23.005Z,2.85
2022-10-23T16:27:49.260Z,2.80
2022-10-23T16:30:16.205Z,2.70
2022-10-23T16:32:42.523Z,2.72
2022-10-23T16:35:12.319Z,3.30
2022-10-23T16:40:05.819Z,3.40
2022-10-23T16:42:32.127Z,2.95
2022-10-23T16:44:58.345Z,3.28
2022-10-23T16:47:24.608Z,2.75
2022-10-23T16:49:50.829Z,3.15
2022-10-23T16:52:17.065Z,3.22
2022-10-23T16:54:43.859Z,3.20
2022-10-23T16:57:10.088Z,2.80
2022-10-23T16:59:36.895Z,3.10
2022-10-23T17:02:03.255Z,2.90
2022-10-23T17:04:29.603Z,3.03
2022-10-23T17:06:56.129Z,2.95
2022-10-23T17:09:23.495Z,3.55
2022-10-23T17:11:52.752Z,3.03
2022-10-23T17:14:20.939Z,2.97
2022-10-23T17:16:48.795Z,2.90
2022-10-23T17:19:33.145Z,2.92
2022-10-23T17:22:02.254Z,2.63
2022-10-23T17:24:28.495Z,3.00
2022-10-23T17:26:55.995Z,3.55
2022-10-23T17:29:22.198Z,2.63
2022-10-23T17:31:49.247Z,2.45
2022-10-23T17:34:17.877Z,2.70
2022-10-23T17:36:45.392Z,2.53
2022-10-23T17:39:13.095Z,2.75
2022-10-23T17:41:39.771Z,2.53
2022-10-23T17:44:06.125Z,2.40
2022-10-23T17:46:32.359Z,2.22
2022-10-23T17:48:59.759Z,2.35
2022-10-23T17:51:27.131Z,2.63
2022-10-23T17:53:55.525Z,2.90
2022-10-23T17:56:23.323Z,2.30
2022-10-23T17:58:50.418Z,2.67
2022-10-23T18:01:18.337Z,2.75
2022-10-23T18:03:44.639Z,2.53
2022-10-23T18:06:18.896Z,2.03
2022-10-23T18:08:45.674Z,2.28
2022-10-23T18:11:28.513Z,2.60
2022-10-23T18:13:55.084Z,2.65
2022-10-23T18:16:21.324Z,2.42
2022-10-23T18:18:48.227Z,2.40
2022-10-23T18:21:15.124Z,2.47
2022-10-23T18:23:41.743Z,2.63
2022-10-23T18:26:15.881Z,2.67
2022-10-23T18:28:42.699Z,2.35
2022-10-23T18:31:09.869Z,2.50
2022-10-23T18:33:36.088Z,2.58
2022-10-23T18:36:02.363Z,2.60
2022-10-23T18:38:30.023Z,2.45
2022-10-23T18:40:56.691Z,2.80
2022-10-23T18:43:41.888Z,2.95
2022-10-23T18:46:10.080Z,2.92
2022-10-23T18:48:36.340Z,3.20
2022-10-23T18:51:02.997Z,2.90
2022-10-23T18:53:29.229Z,3.03
2022-10-23T18:55:55.557Z,2.70
2022-10-23T18:58:21.772Z,3.03
2022-10-23T19:00:48.051Z,2.80
2022-10-23T19:03:14.956Z,3.25
2022-10-23T19:05:42.523Z,3.00
2022-10-23T19:08:08.743Z,3.08
2022-10-23T19:10:35.667Z,3.00
2022-10-23T19:13:01.893Z,3.03
2022-10-23T19:15:28.155Z,3.15
2022-10-23T19:17:54.385Z,3.00
2022-10-23T19:20:21.777Z,2.75
2022-10-23T19:22:49.496Z,2.92
2022-10-23T19:25:26.949Z,2.65
2022-10-23T19:27:54.602Z,2.53
2022-10-23T19:30:22.735Z,3.10
2022-10-23T19:32:49.299Z,3.13
2022-10-23T19:35:16.885Z,2.63
2022-10-23T19:37:43.483Z,2.83
2022-10-23T19:40:10.135Z,3.40
2022-10-23T19:42:38.189Z,2.90
2022-10-23T19:45:09.192Z,3.20
2022-10-23T19:47:35.719Z,2.72
2022-10-23T19:50:02.063Z,3.03
2022-10-23T19:52:28.356Z,2.90
2022-10-23T19:54:54.575Z,2.70
2022-10-23T19:57:22.588Z,2.60
2022-10-23T19:59:52.391Z,2.75
2022-10-23T20:02:19.343Z,2.90
2022-10-23T20:04:46.176Z,3.05
2022-10-23T20:07:12.640Z,3.03
2022-10-23T20:09:39.835Z,2.35
2022-10-23T20:12:06.094Z,2.90
2022-10-23T20:14:32.338Z,2.80
2022-10-23T20:16:59.675Z,2.67
2022-10-23T20:19:25.930Z,2.40
2022-10-23T20:21:52.217Z,2.25
2022-10-23T20:24:19.021Z,1.90
2022-10-23T20:26:46.834Z,2.30
2022-10-23T20:29:13.508Z,2.40
2022-10-23T20:31:39.895Z,1.75
2022-10-23T20:34:06.652Z,1.20
2022-10-23T20:36:34.170Z,1.50
2022-10-23T20:39:04.954Z,1.48
2022-10-23T20:41:33.158Z,1.50
2022-10-23T20:43:59.716Z,1.48
2022-10-23T20:46:26.471Z,1.90
2022-10-23T20:48:53.061Z,1.70
2022-10-23T20:51:20.999Z,1.60
2022-10-23T20:53:47.950Z,1.92
2022-10-23T20:56:18.486Z,1.60
2022-10-23T20:58:44.704Z,2.10
2022-10-23T21:01:12.688Z,1.20
2022-10-23T21:03:38.967Z,1.00
2022-10-23T21:06:06.707Z,1.23
2022-10-23T21:08:33.068Z,1.20
2022-10-23T21:10:59.443Z,1.00
2022-10-23T21:13:25.822Z,1.38
2022-10-23T21:15:52.143Z,1.17
2022-10-23T21:18:27.214Z,1.00
2022-10-23T21:21:04.703Z,1.33
2022-10-23T21:23:31.886Z,0.90
2022-10-23T21:26:01.219Z,1.00
2022-10-23T21:28:29.724Z,0.80
2022-10-23T21:30:55.968Z,0.90
2022-10-23T21:33:22.192Z,0.75
2022-10-23T21:35:57.880Z,1.10
2022-10-23T21:38:24.931Z,0.90
2022-10-23T21:40:51.255Z,0.88
2022-10-23T21:43:17.761Z,0.90
2022-10-23T21:45:44.095Z,1.10
2022-10-23T21:48:10.375Z,0.93
2022-10-23T21:50:36.651Z,1.40
2022-10-23T21:53:02.934Z,0.85
2022-10-23T21:55:29.900Z,1.10
2022-10-23T21:57:56.419Z,1.02
2022-10-23T22:00:22.812Z,0.80
2022-10-23T22:02:49.208Z,0.80
2022-10-23T22:05:15.587Z,1.10
2022-10-23T22:07:45.945Z,1.10
2022-10-23T22:10:12.453Z,1.00
2022-10-23T22:12:38.687Z,1.10
2022-10-23T22:15:05.288Z,1.15
2022-10-23T22:17:31.543Z,1.00
2022-10-23T22:19:57.886Z,1.10
2022-10-23T22:22:24.133Z,1.40
2022-10-23T22:24:50.496Z,1.52
2022-10-23T22:27:16.778Z,1.40
2022-10-23T22:29:43.112Z,1.85
2022-10-23T22:32:09.346Z,1.55
2022-10-23T22:35:02.523Z,1.63
2022-10-23T22:37:21.872Z,2.13
2022-10-23T22:39:51.947Z,1.58
2022-10-23T22:42:18.574Z,1.45
2022-10-23T22:44:44.920Z,1.77
2022-10-23T22:47:11.255Z,1.50
2022-10-23T22:49:38.353Z,1.45
2022-10-23T22:52:04.618Z,1.55
2022-10-23T22:54:31.325Z,1.73
2022-10-23T22:56:57.735Z,1.50
2022-10-23T22:59:24.093Z,1.45
2022-10-23T23:01:50.927Z,1.20
2022-10-23T23:07:05.016Z,1.10
2022-10-23T23:09:31.271Z,1.30
2022-10-23T23:11:57.684Z,1.75
2022-10-23T23:14:24.612Z,1.30
2022-10-23T23:16:51.636Z,1.15
2022-10-23T23:19:17.835Z,1.40
2022-10-23T23:21:44.093Z,1.67
2022-10-23T23:24:10.900Z,1.45
2022-10-23T23:26:37.188Z,1.55
2022-10-23T23:29:03.442Z,1.88
2022-10-23T23:31:29.674Z,1.92
2022-10-23T23:33:56.008Z,1.67
2022-10-23T23:36:24.446Z,1.67
2022-10-23T23:38:50.866Z,2.15
2022-10-23T23:41:17.895Z,1.80
2022-10-23T23:43:44.294Z,2.00
2022-10-23T23:46:10.653Z,1.98
2022-10-23T23:48:36.995Z,2.30
2022-10-23T23:51:03.289Z,1.92
2022-10-23T23:53:29.528Z,2.08
2022-10-23T23:55:56.157Z,2.17
2022-10-23T23:58:22.596Z,2.10
